Terminal Aerodrome Forecast
Issued by NWS

Home | Current Version | Previous Version | Text Only | Print | Product List | Glossary On
Versions: 1 2 3 4 5 6 7 8 9 10 11 12 13 14 15 16
000
FTUS42 KTBW 272300
TAFPIE
TAF
KPIE 272338Z 2800/2824 23004KT P6SM SCT030 BKN250
     FM280300 VRB03KT P6SM BKN025
     FM280600 00000KT 4SM BR SCT005 BKN020
      TEMPO 2808/2812 1SM BR BKN005
     FM281200 00000KT 1SM BR BKN005
     FM281400 18004KT 5SM BR SCT005 BKN015
     FM281700 21006KT P6SM BKN025=

USA.gov is the U.S. government's official web portal to all federal, state and local government web resources and services.